<?xml version="1.0" encoding="UTF-8" standalone="no" ?>
<gpx xmlns="http://www.topografix.com/GPX/1/1" xmlns:xsi="http://www.w3.org/2001/XMLSchema-instance" xsi:schemaLocation="http://www.topografix.com/GPX/1/1 http://www.topografix.com/GPX/1/1/gpx.xsd" version="1.1" creator="VisuGPX - https://www.visugpx.com">
  <metadata>
    <name>entrainement avec Françoise N°4</name>
    <desc><![CDATA[boucle raccourci vu l'orage qui arrivait...]]></desc>
  </metadata>
  <wpt lat="47.54173" lon="7.16983">
    <ele>366</ele>
    <name><![CDATA[0000040]]></name>
  </wpt>
  <wpt lat="47.54148" lon="7.17064">
    <ele>367</ele>
    <name><![CDATA[0000041]]></name>
  </wpt>
  <trk>
    <name><![CDATA[2018-04-04 12:23]]></name>
    <trkseg>
      <trkpt lat="47.54173" lon="7.16983">
        <ele>366</ele>
        <time>2018-04-04T10:23:08Z</time>
      </trkpt>
      <trkpt lat="47.54164" lon="7.17008">
        <ele>367</ele>
        <time>2018-04-04T10:23:23Z</time>
      </trkpt>
      <trkpt lat="47.54155" lon="7.17035">
        <ele>367</ele>
        <time>2018-04-04T10:23:39Z</time>
      </trkpt>
      <trkpt lat="47.54144" lon="7.17057">
        <ele>367</ele>
        <time>2018-04-04T10:23:59Z</time>
      </trkpt>
      <trkpt lat="47.54126" lon="7.17061">
        <ele>367</ele>
        <time>2018-04-04T10:24:11Z</time>
      </trkpt>
      <trkpt lat="47.54109" lon="7.17072">
        <ele>367</ele>
        <time>2018-04-04T10:24:23Z</time>
      </trkpt>
      <trkpt lat="47.54096" lon="7.17094">
        <ele>367</ele>
        <time>2018-04-04T10:24:35Z</time>
      </trkpt>
      <trkpt lat="47.54079" lon="7.17112">
        <ele>369</ele>
        <time>2018-04-04T10:24:47Z</time>
      </trkpt>
      <trkpt lat="47.54068" lon="7.17134">
        <ele>369</ele>
        <time>2018-04-04T10:24:57Z</time>
      </trkpt>
      <trkpt lat="47.54058" lon="7.17161">
        <ele>369</ele>
        <time>2018-04-04T10:25:09Z</time>
      </trkpt>
      <trkpt lat="47.54046" lon="7.17186">
        <ele>370</ele>
        <time>2018-04-04T10:25:21Z</time>
      </trkpt>
      <trkpt lat="47.54034" lon="7.17212">
        <ele>370</ele>
        <time>2018-04-04T10:25:33Z</time>
      </trkpt>
      <trkpt lat="47.54024" lon="7.17234">
        <ele>370</ele>
        <time>2018-04-04T10:25:43Z</time>
      </trkpt>
      <trkpt lat="47.54009" lon="7.17254">
        <ele>370</ele>
        <time>2018-04-04T10:25:55Z</time>
      </trkpt>
      <trkpt lat="47.53988" lon="7.17245">
        <ele>371</ele>
        <time>2018-04-04T10:26:05Z</time>
      </trkpt>
      <trkpt lat="47.53971" lon="7.17236">
        <ele>373</ele>
        <time>2018-04-04T10:26:15Z</time>
      </trkpt>
      <trkpt lat="47.53951" lon="7.17228">
        <ele>373</ele>
        <time>2018-04-04T10:26:27Z</time>
      </trkpt>
      <trkpt lat="47.53934" lon="7.17245">
        <ele>373</ele>
        <time>2018-04-04T10:26:41Z</time>
      </trkpt>
      <trkpt lat="47.53922" lon="7.17266">
        <ele>372</ele>
        <time>2018-04-04T10:26:51Z</time>
      </trkpt>
      <trkpt lat="47.53909" lon="7.17291">
        <ele>374</ele>
        <time>2018-04-04T10:27:03Z</time>
      </trkpt>
      <trkpt lat="47.53898" lon="7.17313">
        <ele>373</ele>
        <time>2018-04-04T10:27:13Z</time>
      </trkpt>
      <trkpt lat="47.53888" lon="7.17335">
        <ele>373</ele>
        <time>2018-04-04T10:27:23Z</time>
      </trkpt>
      <trkpt lat="47.53876" lon="7.1736">
        <ele>373</ele>
        <time>2018-04-04T10:27:35Z</time>
      </trkpt>
      <trkpt lat="47.53871" lon="7.17386">
        <ele>374</ele>
        <time>2018-04-04T10:27:47Z</time>
      </trkpt>
      <trkpt lat="47.53891" lon="7.174">
        <ele>373</ele>
        <time>2018-04-04T10:27:59Z</time>
      </trkpt>
      <trkpt lat="47.53906" lon="7.17419">
        <ele>372</ele>
        <time>2018-04-04T10:28:11Z</time>
      </trkpt>
      <trkpt lat="47.53916" lon="7.17442">
        <ele>373</ele>
        <time>2018-04-04T10:28:21Z</time>
      </trkpt>
      <trkpt lat="47.53925" lon="7.17467">
        <ele>371</ele>
        <time>2018-04-04T10:28:31Z</time>
      </trkpt>
      <trkpt lat="47.53934" lon="7.1749">
        <ele>371</ele>
        <time>2018-04-04T10:28:41Z</time>
      </trkpt>
      <trkpt lat="47.53946" lon="7.17511">
        <ele>372</ele>
        <time>2018-04-04T10:28:51Z</time>
      </trkpt>
      <trkpt lat="47.53962" lon="7.17534">
        <ele>371</ele>
        <time>2018-04-04T10:29:03Z</time>
      </trkpt>
      <trkpt lat="47.53977" lon="7.17556">
        <ele>372</ele>
        <time>2018-04-04T10:29:15Z</time>
      </trkpt>
      <trkpt lat="47.53991" lon="7.17576">
        <ele>372</ele>
        <time>2018-04-04T10:29:25Z</time>
      </trkpt>
      <trkpt lat="47.54004" lon="7.17596">
        <ele>373</ele>
        <time>2018-04-04T10:29:35Z</time>
      </trkpt>
      <trkpt lat="47.54019" lon="7.17616">
        <ele>373</ele>
        <time>2018-04-04T10:29:47Z</time>
      </trkpt>
      <trkpt lat="47.54032" lon="7.17636">
        <ele>374</ele>
        <time>2018-04-04T10:29:57Z</time>
      </trkpt>
      <trkpt lat="47.54045" lon="7.17654">
        <ele>374</ele>
        <time>2018-04-04T10:30:07Z</time>
      </trkpt>
      <trkpt lat="47.54062" lon="7.17673">
        <ele>377</ele>
        <time>2018-04-04T10:30:19Z</time>
      </trkpt>
      <trkpt lat="47.54074" lon="7.17695">
        <ele>377</ele>
        <time>2018-04-04T10:30:31Z</time>
      </trkpt>
      <trkpt lat="47.54091" lon="7.17711">
        <ele>383</ele>
        <time>2018-04-04T10:30:43Z</time>
      </trkpt>
      <trkpt lat="47.54109" lon="7.17706">
        <ele>384</ele>
        <time>2018-04-04T10:30:55Z</time>
      </trkpt>
      <trkpt lat="47.54126" lon="7.17689">
        <ele>384</ele>
        <time>2018-04-04T10:31:07Z</time>
      </trkpt>
      <trkpt lat="47.54139" lon="7.1767">
        <ele>384</ele>
        <time>2018-04-04T10:31:19Z</time>
      </trkpt>
      <trkpt lat="47.5415" lon="7.17645">
        <ele>381</ele>
        <time>2018-04-04T10:31:29Z</time>
      </trkpt>
      <trkpt lat="47.5416" lon="7.17624">
        <ele>381</ele>
        <time>2018-04-04T10:31:39Z</time>
      </trkpt>
      <trkpt lat="47.54172" lon="7.17603">
        <ele>385</ele>
        <time>2018-04-04T10:31:49Z</time>
      </trkpt>
      <trkpt lat="47.54183" lon="7.1758">
        <ele>383</ele>
        <time>2018-04-04T10:31:59Z</time>
      </trkpt>
      <trkpt lat="47.54195" lon="7.17558">
        <ele>385</ele>
        <time>2018-04-04T10:32:11Z</time>
      </trkpt>
      <trkpt lat="47.54209" lon="7.1754">
        <ele>386</ele>
        <time>2018-04-04T10:32:20Z</time>
      </trkpt>
      <trkpt lat="47.54223" lon="7.17523">
        <ele>388</ele>
        <time>2018-04-04T10:32:30Z</time>
      </trkpt>
      <trkpt lat="47.54236" lon="7.17505">
        <ele>391</ele>
        <time>2018-04-04T10:32:40Z</time>
      </trkpt>
      <trkpt lat="47.54248" lon="7.17484">
        <ele>389</ele>
        <time>2018-04-04T10:32:50Z</time>
      </trkpt>
      <trkpt lat="47.54261" lon="7.17464">
        <ele>396</ele>
        <time>2018-04-04T10:33:00Z</time>
      </trkpt>
      <trkpt lat="47.54275" lon="7.17445">
        <ele>396</ele>
        <time>2018-04-04T10:33:12Z</time>
      </trkpt>
      <trkpt lat="47.54288" lon="7.17422">
        <ele>396</ele>
        <time>2018-04-04T10:33:22Z</time>
      </trkpt>
      <trkpt lat="47.543" lon="7.17401">
        <ele>392</ele>
        <time>2018-04-04T10:33:32Z</time>
      </trkpt>
      <trkpt lat="47.54315" lon="7.17378">
        <ele>392</ele>
        <time>2018-04-04T10:33:44Z</time>
      </trkpt>
      <trkpt lat="47.5433" lon="7.17363">
        <ele>391</ele>
        <time>2018-04-04T10:33:54Z</time>
      </trkpt>
      <trkpt lat="47.54348" lon="7.17347">
        <ele>398</ele>
        <time>2018-04-04T10:34:06Z</time>
      </trkpt>
      <trkpt lat="47.54364" lon="7.1733">
        <ele>393</ele>
        <time>2018-04-04T10:34:16Z</time>
      </trkpt>
      <trkpt lat="47.54381" lon="7.17312">
        <ele>393</ele>
        <time>2018-04-04T10:34:28Z</time>
      </trkpt>
      <trkpt lat="47.54398" lon="7.17297">
        <ele>393</ele>
        <time>2018-04-04T10:34:38Z</time>
      </trkpt>
      <trkpt lat="47.54415" lon="7.17285">
        <ele>392</ele>
        <time>2018-04-04T10:34:48Z</time>
      </trkpt>
      <trkpt lat="47.54429" lon="7.17269">
        <ele>396</ele>
        <time>2018-04-04T10:34:58Z</time>
      </trkpt>
      <trkpt lat="47.54447" lon="7.17251">
        <ele>397</ele>
        <time>2018-04-04T10:35:10Z</time>
      </trkpt>
      <trkpt lat="47.54465" lon="7.17235">
        <ele>393</ele>
        <time>2018-04-04T10:35:22Z</time>
      </trkpt>
      <trkpt lat="47.54481" lon="7.17217">
        <ele>393</ele>
        <time>2018-04-04T10:35:32Z</time>
      </trkpt>
      <trkpt lat="47.54496" lon="7.17202">
        <ele>393</ele>
        <time>2018-04-04T10:35:42Z</time>
      </trkpt>
      <trkpt lat="47.5451" lon="7.17185">
        <ele>398</ele>
        <time>2018-04-04T10:35:52Z</time>
      </trkpt>
      <trkpt lat="47.54527" lon="7.17167">
        <ele>398</ele>
        <time>2018-04-04T10:36:04Z</time>
      </trkpt>
      <trkpt lat="47.54542" lon="7.1715">
        <ele>395</ele>
        <time>2018-04-04T10:36:14Z</time>
      </trkpt>
      <trkpt lat="47.54559" lon="7.17131">
        <ele>395</ele>
        <time>2018-04-04T10:36:26Z</time>
      </trkpt>
      <trkpt lat="47.54574" lon="7.17116">
        <ele>395</ele>
        <time>2018-04-04T10:36:36Z</time>
      </trkpt>
      <trkpt lat="47.54591" lon="7.17097">
        <ele>398</ele>
        <time>2018-04-04T10:36:48Z</time>
      </trkpt>
      <trkpt lat="47.54608" lon="7.1708">
        <ele>396</ele>
        <time>2018-04-04T10:37:00Z</time>
      </trkpt>
      <trkpt lat="47.54625" lon="7.17063">
        <ele>396</ele>
        <time>2018-04-04T10:37:12Z</time>
      </trkpt>
      <trkpt lat="47.54641" lon="7.17045">
        <ele>395</ele>
        <time>2018-04-04T10:37:22Z</time>
      </trkpt>
      <trkpt lat="47.54655" lon="7.17027">
        <ele>395</ele>
        <time>2018-04-04T10:37:34Z</time>
      </trkpt>
      <trkpt lat="47.54672" lon="7.17011">
        <ele>396</ele>
        <time>2018-04-04T10:37:46Z</time>
      </trkpt>
      <trkpt lat="47.54689" lon="7.16996">
        <ele>394</ele>
        <time>2018-04-04T10:37:56Z</time>
      </trkpt>
      <trkpt lat="47.54707" lon="7.16978">
        <ele>394</ele>
        <time>2018-04-04T10:38:07Z</time>
      </trkpt>
      <trkpt lat="47.54723" lon="7.16961">
        <ele>394</ele>
        <time>2018-04-04T10:38:17Z</time>
      </trkpt>
      <trkpt lat="47.5474" lon="7.16945">
        <ele>394</ele>
        <time>2018-04-04T10:38:29Z</time>
      </trkpt>
      <trkpt lat="47.54758" lon="7.16926">
        <ele>397</ele>
        <time>2018-04-04T10:38:41Z</time>
      </trkpt>
      <trkpt lat="47.54773" lon="7.16912">
        <ele>395</ele>
        <time>2018-04-04T10:38:51Z</time>
      </trkpt>
      <trkpt lat="47.54792" lon="7.16902">
        <ele>395</ele>
        <time>2018-04-04T10:39:03Z</time>
      </trkpt>
      <trkpt lat="47.54812" lon="7.16889">
        <ele>396</ele>
        <time>2018-04-04T10:39:15Z</time>
      </trkpt>
      <trkpt lat="47.54828" lon="7.16877">
        <ele>396</ele>
        <time>2018-04-04T10:39:25Z</time>
      </trkpt>
      <trkpt lat="47.54846" lon="7.1687">
        <ele>399</ele>
        <time>2018-04-04T10:39:35Z</time>
      </trkpt>
      <trkpt lat="47.54862" lon="7.16859">
        <ele>399</ele>
        <time>2018-04-04T10:39:47Z</time>
      </trkpt>
      <trkpt lat="47.54882" lon="7.16852">
        <ele>400</ele>
        <time>2018-04-04T10:39:57Z</time>
      </trkpt>
      <trkpt lat="47.54901" lon="7.16848">
        <ele>400</ele>
        <time>2018-04-04T10:40:07Z</time>
      </trkpt>
      <trkpt lat="47.54923" lon="7.1685">
        <ele>402</ele>
        <time>2018-04-04T10:40:19Z</time>
      </trkpt>
      <trkpt lat="47.54942" lon="7.16853">
        <ele>403</ele>
        <time>2018-04-04T10:40:29Z</time>
      </trkpt>
      <trkpt lat="47.54962" lon="7.16857">
        <ele>404</ele>
        <time>2018-04-04T10:40:39Z</time>
      </trkpt>
      <trkpt lat="47.54983" lon="7.16861">
        <ele>404</ele>
        <time>2018-04-04T10:40:51Z</time>
      </trkpt>
      <trkpt lat="47.55003" lon="7.16861">
        <ele>405</ele>
        <time>2018-04-04T10:41:01Z</time>
      </trkpt>
      <trkpt lat="47.55024" lon="7.16858">
        <ele>405</ele>
        <time>2018-04-04T10:41:15Z</time>
      </trkpt>
      <trkpt lat="47.55045" lon="7.16859">
        <ele>404</ele>
        <time>2018-04-04T10:41:27Z</time>
      </trkpt>
      <trkpt lat="47.55065" lon="7.16864">
        <ele>404</ele>
        <time>2018-04-04T10:41:38Z</time>
      </trkpt>
      <trkpt lat="47.55085" lon="7.16869">
        <ele>401</ele>
        <time>2018-04-04T10:41:48Z</time>
      </trkpt>
      <trkpt lat="47.55105" lon="7.1687">
        <ele>401</ele>
        <time>2018-04-04T10:41:58Z</time>
      </trkpt>
      <trkpt lat="47.55126" lon="7.16868">
        <ele>400</ele>
        <time>2018-04-04T10:42:10Z</time>
      </trkpt>
      <trkpt lat="47.55144" lon="7.16868">
        <ele>400</ele>
        <time>2018-04-04T10:42:20Z</time>
      </trkpt>
      <trkpt lat="47.55164" lon="7.16867">
        <ele>399</ele>
        <time>2018-04-04T10:42:30Z</time>
      </trkpt>
      <trkpt lat="47.55184" lon="7.16864">
        <ele>395</ele>
        <time>2018-04-04T10:42:42Z</time>
      </trkpt>
      <trkpt lat="47.55205" lon="7.16856">
        <ele>395</ele>
        <time>2018-04-04T10:42:54Z</time>
      </trkpt>
      <trkpt lat="47.55222" lon="7.16845">
        <ele>393</ele>
        <time>2018-04-04T10:43:04Z</time>
      </trkpt>
      <trkpt lat="47.5524" lon="7.16834">
        <ele>391</ele>
        <time>2018-04-04T10:43:14Z</time>
      </trkpt>
      <trkpt lat="47.55258" lon="7.16828">
        <ele>390</ele>
        <time>2018-04-04T10:43:22Z</time>
      </trkpt>
      <trkpt lat="47.55276" lon="7.16815">
        <ele>390</ele>
        <time>2018-04-04T10:43:30Z</time>
      </trkpt>
      <trkpt lat="47.55292" lon="7.16795">
        <ele>391</ele>
        <time>2018-04-04T10:43:40Z</time>
      </trkpt>
      <trkpt lat="47.55302" lon="7.16772">
        <ele>391</ele>
        <time>2018-04-04T10:43:50Z</time>
      </trkpt>
      <trkpt lat="47.55314" lon="7.16751">
        <ele>391</ele>
        <time>2018-04-04T10:44:00Z</time>
      </trkpt>
      <trkpt lat="47.55324" lon="7.16724">
        <ele>386</ele>
        <time>2018-04-04T10:44:12Z</time>
      </trkpt>
      <trkpt lat="47.55336" lon="7.16697">
        <ele>385</ele>
        <time>2018-04-04T10:44:24Z</time>
      </trkpt>
      <trkpt lat="47.55351" lon="7.16674">
        <ele>384</ele>
        <time>2018-04-04T10:44:36Z</time>
      </trkpt>
      <trkpt lat="47.55347" lon="7.16645">
        <ele>379</ele>
        <time>2018-04-04T10:44:46Z</time>
      </trkpt>
      <trkpt lat="47.55341" lon="7.16614">
        <ele>377</ele>
        <time>2018-04-04T10:44:56Z</time>
      </trkpt>
      <trkpt lat="47.55339" lon="7.16587">
        <ele>375</ele>
        <time>2018-04-04T10:45:06Z</time>
      </trkpt>
      <trkpt lat="47.55336" lon="7.16556">
        <ele>373</ele>
        <time>2018-04-04T10:45:18Z</time>
      </trkpt>
      <trkpt lat="47.5533" lon="7.16528">
        <ele>371</ele>
        <time>2018-04-04T10:45:28Z</time>
      </trkpt>
      <trkpt lat="47.55328" lon="7.16499">
        <ele>370</ele>
        <time>2018-04-04T10:45:38Z</time>
      </trkpt>
      <trkpt lat="47.55327" lon="7.1647">
        <ele>369</ele>
        <time>2018-04-04T10:45:48Z</time>
      </trkpt>
      <trkpt lat="47.55319" lon="7.16445">
        <ele>368</ele>
        <time>2018-04-04T10:45:58Z</time>
      </trkpt>
      <trkpt lat="47.55301" lon="7.16431">
        <ele>368</ele>
        <time>2018-04-04T10:46:08Z</time>
      </trkpt>
      <trkpt lat="47.55282" lon="7.16435">
        <ele>368</ele>
        <time>2018-04-04T10:46:20Z</time>
      </trkpt>
      <trkpt lat="47.55267" lon="7.16453">
        <ele>368</ele>
        <time>2018-04-04T10:46:30Z</time>
      </trkpt>
      <trkpt lat="47.55252" lon="7.16437">
        <ele>367</ele>
        <time>2018-04-04T10:46:46Z</time>
      </trkpt>
      <trkpt lat="47.55238" lon="7.16418">
        <ele>367</ele>
        <time>2018-04-04T10:46:58Z</time>
      </trkpt>
      <trkpt lat="47.5522" lon="7.16421">
        <ele>368</ele>
        <time>2018-04-04T10:47:08Z</time>
      </trkpt>
      <trkpt lat="47.552" lon="7.16425">
        <ele>368</ele>
        <time>2018-04-04T10:47:20Z</time>
      </trkpt>
      <trkpt lat="47.55182" lon="7.1643">
        <ele>368</ele>
        <time>2018-04-04T10:47:30Z</time>
      </trkpt>
      <trkpt lat="47.55163" lon="7.16433">
        <ele>369</ele>
        <time>2018-04-04T10:47:40Z</time>
      </trkpt>
      <trkpt lat="47.55143" lon="7.16435">
        <ele>369</ele>
        <time>2018-04-04T10:47:52Z</time>
      </trkpt>
      <trkpt lat="47.55122" lon="7.1644">
        <ele>369</ele>
        <time>2018-04-04T10:48:04Z</time>
      </trkpt>
      <trkpt lat="47.55104" lon="7.16443">
        <ele>369</ele>
        <time>2018-04-04T10:48:14Z</time>
      </trkpt>
      <trkpt lat="47.55085" lon="7.16444">
        <ele>369</ele>
        <time>2018-04-04T10:48:24Z</time>
      </trkpt>
      <trkpt lat="47.55066" lon="7.16449">
        <ele>369</ele>
        <time>2018-04-04T10:48:36Z</time>
      </trkpt>
      <trkpt lat="47.55047" lon="7.16451">
        <ele>369</ele>
        <time>2018-04-04T10:48:46Z</time>
      </trkpt>
      <trkpt lat="47.55026" lon="7.16456">
        <ele>369</ele>
        <time>2018-04-04T10:48:58Z</time>
      </trkpt>
      <trkpt lat="47.55008" lon="7.16462">
        <ele>369</ele>
        <time>2018-04-04T10:49:08Z</time>
      </trkpt>
      <trkpt lat="47.54988" lon="7.1647">
        <ele>370</ele>
        <time>2018-04-04T10:49:20Z</time>
      </trkpt>
      <trkpt lat="47.5497" lon="7.16479">
        <ele>371</ele>
        <time>2018-04-04T10:49:30Z</time>
      </trkpt>
      <trkpt lat="47.54951" lon="7.16493">
        <ele>371</ele>
        <time>2018-04-04T10:49:42Z</time>
      </trkpt>
      <trkpt lat="47.5493" lon="7.16502">
        <ele>373</ele>
        <time>2018-04-04T10:49:52Z</time>
      </trkpt>
      <trkpt lat="47.5491" lon="7.16509">
        <ele>373</ele>
        <time>2018-04-04T10:50:02Z</time>
      </trkpt>
      <trkpt lat="47.54891" lon="7.16519">
        <ele>373</ele>
        <time>2018-04-04T10:50:12Z</time>
      </trkpt>
      <trkpt lat="47.54875" lon="7.1653">
        <ele>373</ele>
        <time>2018-04-04T10:50:22Z</time>
      </trkpt>
      <trkpt lat="47.54859" lon="7.16543">
        <ele>374</ele>
        <time>2018-04-04T10:50:32Z</time>
      </trkpt>
      <trkpt lat="47.54841" lon="7.16557">
        <ele>375</ele>
        <time>2018-04-04T10:50:42Z</time>
      </trkpt>
      <trkpt lat="47.54823" lon="7.16571">
        <ele>375</ele>
        <time>2018-04-04T10:50:54Z</time>
      </trkpt>
      <trkpt lat="47.54806" lon="7.1659">
        <ele>379</ele>
        <time>2018-04-04T10:51:06Z</time>
      </trkpt>
      <trkpt lat="47.5479" lon="7.16605">
        <ele>379</ele>
        <time>2018-04-04T10:51:16Z</time>
      </trkpt>
      <trkpt lat="47.54774" lon="7.1662">
        <ele>379</ele>
        <time>2018-04-04T10:51:26Z</time>
      </trkpt>
      <trkpt lat="47.54759" lon="7.1664">
        <ele>380</ele>
        <time>2018-04-04T10:51:36Z</time>
      </trkpt>
      <trkpt lat="47.54744" lon="7.16659">
        <ele>379</ele>
        <time>2018-04-04T10:51:46Z</time>
      </trkpt>
      <trkpt lat="47.54732" lon="7.16677">
        <ele>380</ele>
        <time>2018-04-04T10:51:56Z</time>
      </trkpt>
      <trkpt lat="47.54716" lon="7.16698">
        <ele>379</ele>
        <time>2018-04-04T10:52:08Z</time>
      </trkpt>
      <trkpt lat="47.54702" lon="7.16717">
        <ele>379</ele>
        <time>2018-04-04T10:52:18Z</time>
      </trkpt>
      <trkpt lat="47.54688" lon="7.16735">
        <ele>378</ele>
        <time>2018-04-04T10:52:28Z</time>
      </trkpt>
      <trkpt lat="47.54674" lon="7.16753">
        <ele>378</ele>
        <time>2018-04-04T10:52:38Z</time>
      </trkpt>
      <trkpt lat="47.54659" lon="7.16772">
        <ele>376</ele>
        <time>2018-04-04T10:52:49Z</time>
      </trkpt>
      <trkpt lat="47.54644" lon="7.16792">
        <ele>376</ele>
        <time>2018-04-04T10:53:01Z</time>
      </trkpt>
      <trkpt lat="47.54628" lon="7.16811">
        <ele>376</ele>
        <time>2018-04-04T10:53:11Z</time>
      </trkpt>
      <trkpt lat="47.54613" lon="7.16829">
        <ele>376</ele>
        <time>2018-04-04T10:53:21Z</time>
      </trkpt>
      <trkpt lat="47.54599" lon="7.16849">
        <ele>378</ele>
        <time>2018-04-04T10:53:31Z</time>
      </trkpt>
      <trkpt lat="47.54586" lon="7.16868">
        <ele>379</ele>
        <time>2018-04-04T10:53:41Z</time>
      </trkpt>
      <trkpt lat="47.54573" lon="7.16888">
        <ele>377</ele>
        <time>2018-04-04T10:53:51Z</time>
      </trkpt>
      <trkpt lat="47.54556" lon="7.16907">
        <ele>378</ele>
        <time>2018-04-04T10:54:03Z</time>
      </trkpt>
      <trkpt lat="47.5454" lon="7.16929">
        <ele>380</ele>
        <time>2018-04-04T10:54:15Z</time>
      </trkpt>
      <trkpt lat="47.54526" lon="7.16947">
        <ele>380</ele>
        <time>2018-04-04T10:54:25Z</time>
      </trkpt>
      <trkpt lat="47.54512" lon="7.16966">
        <ele>380</ele>
        <time>2018-04-04T10:54:35Z</time>
      </trkpt>
      <trkpt lat="47.54498" lon="7.16984">
        <ele>378</ele>
        <time>2018-04-04T10:54:45Z</time>
      </trkpt>
      <trkpt lat="47.54484" lon="7.17003">
        <ele>379</ele>
        <time>2018-04-04T10:54:55Z</time>
      </trkpt>
      <trkpt lat="47.54469" lon="7.17025">
        <ele>378</ele>
        <time>2018-04-04T10:55:07Z</time>
      </trkpt>
      <trkpt lat="47.54456" lon="7.17044">
        <ele>377</ele>
        <time>2018-04-04T10:55:17Z</time>
      </trkpt>
      <trkpt lat="47.54441" lon="7.17067">
        <ele>377</ele>
        <time>2018-04-04T10:55:29Z</time>
      </trkpt>
      <trkpt lat="47.54429" lon="7.17088">
        <ele>378</ele>
        <time>2018-04-04T10:55:39Z</time>
      </trkpt>
      <trkpt lat="47.54416" lon="7.1711">
        <ele>375</ele>
        <time>2018-04-04T10:55:49Z</time>
      </trkpt>
      <trkpt lat="47.54404" lon="7.1713">
        <ele>376</ele>
        <time>2018-04-04T10:55:59Z</time>
      </trkpt>
      <trkpt lat="47.54391" lon="7.17151">
        <ele>376</ele>
        <time>2018-04-04T10:56:09Z</time>
      </trkpt>
      <trkpt lat="47.54378" lon="7.17172">
        <ele>380</ele>
        <time>2018-04-04T10:56:19Z</time>
      </trkpt>
      <trkpt lat="47.54366" lon="7.17193">
        <ele>380</ele>
        <time>2018-04-04T10:56:29Z</time>
      </trkpt>
      <trkpt lat="47.54352" lon="7.17215">
        <ele>381</ele>
        <time>2018-04-04T10:56:41Z</time>
      </trkpt>
      <trkpt lat="47.5434" lon="7.17236">
        <ele>381</ele>
        <time>2018-04-04T10:56:51Z</time>
      </trkpt>
      <trkpt lat="47.54326" lon="7.17259">
        <ele>381</ele>
        <time>2018-04-04T10:57:03Z</time>
      </trkpt>
      <trkpt lat="47.54314" lon="7.17284">
        <ele>382</ele>
        <time>2018-04-04T10:57:15Z</time>
      </trkpt>
      <trkpt lat="47.54302" lon="7.17304">
        <ele>382</ele>
        <time>2018-04-04T10:57:25Z</time>
      </trkpt>
      <trkpt lat="47.54291" lon="7.17326">
        <ele>382</ele>
        <time>2018-04-04T10:57:35Z</time>
      </trkpt>
      <trkpt lat="47.54276" lon="7.17346">
        <ele>386</ele>
        <time>2018-04-04T10:57:45Z</time>
      </trkpt>
      <trkpt lat="47.54262" lon="7.1737">
        <ele>386</ele>
        <time>2018-04-04T10:57:57Z</time>
      </trkpt>
      <trkpt lat="47.54249" lon="7.17391">
        <ele>379</ele>
        <time>2018-04-04T10:58:07Z</time>
      </trkpt>
      <trkpt lat="47.54235" lon="7.17416">
        <ele>380</ele>
        <time>2018-04-04T10:58:19Z</time>
      </trkpt>
      <trkpt lat="47.54223" lon="7.17437">
        <ele>382</ele>
        <time>2018-04-04T10:58:29Z</time>
      </trkpt>
      <trkpt lat="47.54209" lon="7.17461">
        <ele>382</ele>
        <time>2018-04-04T10:58:41Z</time>
      </trkpt>
      <trkpt lat="47.54196" lon="7.17485">
        <ele>381</ele>
        <time>2018-04-04T10:58:53Z</time>
      </trkpt>
      <trkpt lat="47.54183" lon="7.17504">
        <ele>381</ele>
        <time>2018-04-04T10:59:03Z</time>
      </trkpt>
      <trkpt lat="47.5417" lon="7.17525">
        <ele>382</ele>
        <time>2018-04-04T10:59:13Z</time>
      </trkpt>
      <trkpt lat="47.54156" lon="7.17545">
        <ele>376</ele>
        <time>2018-04-04T10:59:23Z</time>
      </trkpt>
      <trkpt lat="47.54144" lon="7.17565">
        <ele>376</ele>
        <time>2018-04-04T10:59:33Z</time>
      </trkpt>
      <trkpt lat="47.54131" lon="7.17586">
        <ele>379</ele>
        <time>2018-04-04T10:59:43Z</time>
      </trkpt>
      <trkpt lat="47.5412" lon="7.17607">
        <ele>379</ele>
        <time>2018-04-04T10:59:53Z</time>
      </trkpt>
      <trkpt lat="47.5411" lon="7.17629">
        <ele>379</ele>
        <time>2018-04-04T11:00:03Z</time>
      </trkpt>
      <trkpt lat="47.54101" lon="7.17653">
        <ele>378</ele>
        <time>2018-04-04T11:00:13Z</time>
      </trkpt>
      <trkpt lat="47.5409" lon="7.17678">
        <ele>380</ele>
        <time>2018-04-04T11:00:25Z</time>
      </trkpt>
      <trkpt lat="47.5407" lon="7.17671">
        <ele>377</ele>
        <time>2018-04-04T11:00:37Z</time>
      </trkpt>
      <trkpt lat="47.54052" lon="7.17663">
        <ele>374</ele>
        <time>2018-04-04T11:00:47Z</time>
      </trkpt>
      <trkpt lat="47.54036" lon="7.17641">
        <ele>374</ele>
        <time>2018-04-04T11:00:59Z</time>
      </trkpt>
      <trkpt lat="47.54023" lon="7.17622">
        <ele>373</ele>
        <time>2018-04-04T11:01:09Z</time>
      </trkpt>
      <trkpt lat="47.54007" lon="7.176">
        <ele>373</ele>
        <time>2018-04-04T11:01:21Z</time>
      </trkpt>
      <trkpt lat="47.53994" lon="7.1758">
        <ele>372</ele>
        <time>2018-04-04T11:01:31Z</time>
      </trkpt>
      <trkpt lat="47.5398" lon="7.17559">
        <ele>372</ele>
        <time>2018-04-04T11:01:41Z</time>
      </trkpt>
      <trkpt lat="47.53968" lon="7.17539">
        <ele>371</ele>
        <time>2018-04-04T11:01:51Z</time>
      </trkpt>
      <trkpt lat="47.53951" lon="7.17519">
        <ele>371</ele>
        <time>2018-04-04T11:02:03Z</time>
      </trkpt>
      <trkpt lat="47.53938" lon="7.17495">
        <ele>371</ele>
        <time>2018-04-04T11:02:13Z</time>
      </trkpt>
      <trkpt lat="47.53928" lon="7.17472">
        <ele>371</ele>
        <time>2018-04-04T11:02:23Z</time>
      </trkpt>
      <trkpt lat="47.53918" lon="7.17445">
        <ele>371</ele>
        <time>2018-04-04T11:02:33Z</time>
      </trkpt>
      <trkpt lat="47.53906" lon="7.17421">
        <ele>372</ele>
        <time>2018-04-04T11:02:43Z</time>
      </trkpt>
      <trkpt lat="47.53893" lon="7.17397">
        <ele>373</ele>
        <time>2018-04-04T11:02:55Z</time>
      </trkpt>
      <trkpt lat="47.53875" lon="7.17387">
        <ele>374</ele>
        <time>2018-04-04T11:03:05Z</time>
      </trkpt>
      <trkpt lat="47.5388" lon="7.1736">
        <ele>373</ele>
        <time>2018-04-04T11:03:19Z</time>
      </trkpt>
      <trkpt lat="47.53889" lon="7.17335">
        <ele>373</ele>
        <time>2018-04-04T11:03:29Z</time>
      </trkpt>
      <trkpt lat="47.539" lon="7.1731">
        <ele>373</ele>
        <time>2018-04-04T11:03:39Z</time>
      </trkpt>
      <trkpt lat="47.53911" lon="7.17286">
        <ele>374</ele>
        <time>2018-04-04T11:03:49Z</time>
      </trkpt>
      <trkpt lat="47.53924" lon="7.17261">
        <ele>372</ele>
        <time>2018-04-04T11:04:01Z</time>
      </trkpt>
      <trkpt lat="47.53936" lon="7.1724">
        <ele>373</ele>
        <time>2018-04-04T11:04:11Z</time>
      </trkpt>
      <trkpt lat="47.53951" lon="7.17223">
        <ele>373</ele>
        <time>2018-04-04T11:04:23Z</time>
      </trkpt>
      <trkpt lat="47.53969" lon="7.1723">
        <ele>373</ele>
        <time>2018-04-04T11:04:33Z</time>
      </trkpt>
      <trkpt lat="47.53988" lon="7.1724">
        <ele>372</ele>
        <time>2018-04-04T11:04:45Z</time>
      </trkpt>
      <trkpt lat="47.54007" lon="7.17244">
        <ele>370</ele>
        <time>2018-04-04T11:04:57Z</time>
      </trkpt>
      <trkpt lat="47.54022" lon="7.17226">
        <ele>370</ele>
        <time>2018-04-04T11:05:07Z</time>
      </trkpt>
      <trkpt lat="47.54036" lon="7.17205">
        <ele>370</ele>
        <time>2018-04-04T11:05:17Z</time>
      </trkpt>
      <trkpt lat="47.54048" lon="7.17183">
        <ele>370</ele>
        <time>2018-04-04T11:05:27Z</time>
      </trkpt>
      <trkpt lat="47.54058" lon="7.1716">
        <ele>369</ele>
        <time>2018-04-04T11:05:37Z</time>
      </trkpt>
      <trkpt lat="47.54068" lon="7.17134">
        <ele>369</ele>
        <time>2018-04-04T11:05:47Z</time>
      </trkpt>
      <trkpt lat="47.54078" lon="7.17109">
        <ele>369</ele>
        <time>2018-04-04T11:05:57Z</time>
      </trkpt>
      <trkpt lat="47.54098" lon="7.1711">
        <ele>367</ele>
        <time>2018-04-04T11:06:09Z</time>
      </trkpt>
      <trkpt lat="47.54117" lon="7.17097">
        <ele>367</ele>
        <time>2018-04-04T11:06:21Z</time>
      </trkpt>
      <trkpt lat="47.54129" lon="7.17073">
        <ele>367</ele>
        <time>2018-04-04T11:06:31Z</time>
      </trkpt>
      <trkpt lat="47.54148" lon="7.17064">
        <ele>367</ele>
        <time>2018-04-04T11:06:47Z</time>
      </trkpt>
    </trkseg>
  </trk>
</gpx>